sensor_id;sensor_type;location;lat;lon;timestamp;pressure;altitude;pressure_sealevel;temperature;humidity
14612;BME280;7392;52.078;11.650;2023-05-09T00:01:53;101495.06;;;9.19;70.98
14612;BME280;7392;52.078;11.650;2023-05-09T00:04:21;101487.91;;;9.15;71.57
14612;BME280;7392;52.078;11.650;2023-05-09T00:06:49;101494.94;;;9.11;71.82
14612;BME280;7392;52.078;11.650;2023-05-09T00:09:17;101486.91;;;9.08;72.34
14612;BME280;7392;52.078;11.650;2023-05-09T00:11:45;101489.50;;;9.05;72.77
14612;BME280;7392;52.078;11.650;2023-05-09T00:14:13;101489.50;;;9.02;72.83
14612;BME280;7392;52.078;11.650;2023-05-09T00:16:41;101484.16;;;9.01;72.84
14612;BME280;7392;52.078;11.650;2023-05-09T00:19:11;101477.00;;;8.96;73.17
14612;BME280;7392;52.078;11.650;2023-05-09T00:21:39;101471.66;;;8.92;73.38
14612;BME280;7392;52.078;11.650;2023-05-09T00:24:06;101479.56;;;8.89;73.48
14612;BME280;7392;52.078;11.650;2023-05-09T00:26:34;101468.88;;;8.84;73.91
14612;BME280;7392;52.078;11.650;2023-05-09T00:29:02;101470.59;;;8.80;74.30
14612;BME280;7392;52.078;11.650;2023-05-09T00:31:30;101474.09;;;8.78;74.53
14612;BME280;7392;52.078;11.650;2023-05-09T00:33:57;101464.34;;;8.77;75.00
14612;BME280;7392;52.078;11.650;2023-05-09T00:36:26;101472.25;;;8.74;75.30
14612;BME280;7392;52.078;11.650;2023-05-09T00:38:54;101474.78;;;8.69;75.41
14612;BME280;7392;52.078;11.650;2023-05-09T00:41:22;101472.97;;;8.65;75.62
14612;BME280;7392;52.078;11.650;2023-05-09T00:43:50;101471.16;;;8.61;76.05
14612;BME280;7392;52.078;11.650;2023-05-09T00:46:18;101465.81;;;8.59;76.45
14612;BME280;7392;52.078;11.650;2023-05-09T00:48:46;101472.84;;;8.56;76.31
14612;BME280;7392;52.078;11.650;2023-05-09T00:51:14;101470.97;;;8.52;76.61
14612;BME280;7392;52.078;11.650;2023-05-09T00:53:43;101470.91;;;8.49;76.74
14612;BME280;7392;52.078;11.650;2023-05-09T00:56:11;101469.97;;;8.45;77.16
14612;BME280;7392;52.078;11.650;2023-05-09T00:58:39;101458.41;;;8.41;77.57
14612;BME280;7392;52.078;11.650;2023-05-09T01:01:07;101453.03;;;8.38;78.01
14612;BME280;7392;52.078;11.650;2023-05-09T01:03:37;101445.97;;;8.36;78.08
14612;BME280;7392;52.078;11.650;2023-05-09T01:06:11;101450.31;;;8.32;78.24
14612;BME280;7392;52.078;11.650;2023-05-09T01:38:10;101420.44;;;7.92;81.90
14612;BME280;7392;52.078;11.650;2023-05-09T01:40:41;101421.28;;;7.90;82.27
14612;BME280;7392;52.078;11.650;2023-05-09T01:43:10;101416.78;;;7.85;82.62
14612;BME280;7392;52.078;11.650;2023-05-09T01:45:40;101422.03;;;7.82;82.70
14612;BME280;7392;52.078;11.650;2023-05-09T01:48:09;101423.72;;;7.80;82.84
14612;BME280;7392;52.078;11.650;2023-05-09T01:50:39;101420.13;;;7.77;83.16
14612;BME280;7392;52.078;11.650;2023-05-09T01:53:10;101418.31;;;7.73;83.31
14612;BME280;7392;52.078;11.650;2023-05-09T01:55:39;101422.69;;;7.71;83.46
14612;BME280;7392;52.078;11.650;2023-05-09T01:58:08;101414.66;;;7.67;84.19
14612;BME280;7392;52.078;11.650;2023-05-09T02:00:37;101419.03;;;7.65;84.17
14612;BME280;7392;52.078;11.650;2023-05-09T02:03:05;101414.56;;;7.63;84.23
14612;BME280;7392;52.078;11.650;2023-05-09T02:05:33;101412.72;;;7.59;84.47
14612;BME280;7392;52.078;11.650;2023-05-09T02:08:03;101410.03;;;7.56;84.69
14612;BME280;7392;52.078;11.650;2023-05-09T02:10:34;101403.78;;;7.52;85.00
14612;BME280;7392;52.078;11.650;2023-05-09T02:13:03;101405.50;;;7.50;84.89
14612;BME280;7392;52.078;11.650;2023-05-09T02:15:31;101404.56;;;7.48;85.23
14612;BME280;7392;52.078;11.650;2023-05-09T02:17:59;101404.53;;;7.45;85.53
14612;BME280;7392;52.078;11.650;2023-05-09T02:20:27;101406.22;;;7.41;85.82
14612;BME280;7392;52.078;11.650;2023-05-09T02:22:55;101396.44;;;7.39;86.18
14612;BME280;7392;52.078;11.650;2023-05-09T02:25:23;101408.75;;;7.37;86.25
14612;BME280;7392;52.078;11.650;2023-05-09T02:27:54;101408.69;;;7.34;86.23
14612;BME280;7392;52.078;11.650;2023-05-09T02:30:25;101401.59;;;7.31;86.74
14612;BME280;7392;52.078;11.650;2023-05-09T02:32:56;101397.97;;;7.27;86.66
14612;BME280;7392;52.078;11.650;2023-05-09T02:35:26;101393.56;;;7.26;87.17
14612;BME280;7392;52.078;11.650;2023-05-09T02:37:56;101404.03;;;7.23;87.00
14612;BME280;7392;52.078;11.650;2023-05-09T02:40:29;101396.94;;;7.21;87.38
14612;BME280;7392;52.078;11.650;2023-05-09T02:43:01;101396.88;;;7.18;87.19
14612;BME280;7392;52.078;11.650;2023-05-09T02:45:36;101395.09;;;7.17;87.62
14612;BME280;7392;52.078;11.650;2023-05-09T02:48:10;101395.94;;;7.14;87.68
14612;BME280;7392;52.078;11.650;2023-05-09T02:50:39;101406.44;;;7.11;87.55
14612;BME280;7392;52.078;11.650;2023-05-09T02:53:14;101406.34;;;7.08;87.79
14612;BME280;7392;52.078;11.650;2023-05-09T02:55:48;101401.88;;;7.05;87.75
14612;BME280;7392;52.078;11.650;2023-05-09T02:58:26;101414.16;;;7.03;87.93
14612;BME280;7392;52.078;11.650;2023-05-09T03:01:05;101409.72;;;7.01;88.15
14612;BME280;7392;52.078;11.650;2023-05-09T03:03:40;101413.16;;;6.98;87.93
14612;BME280;7392;52.078;11.650;2023-05-09T03:06:16;101399.88;;;6.95;88.29
14612;BME280;7392;52.078;11.650;2023-05-09T03:08:51;101409.53;;;6.93;88.28
14612;BME280;7392;52.078;11.650;2023-05-09T03:11:41;101412.13;;;6.91;88.50
14612;BME280;7392;52.078;11.650;2023-05-09T03:14:26;101409.44;;;6.88;88.86
14612;BME280;7392;52.078;11.650;2023-05-09T03:16:58;101407.59;;;6.86;88.96
14612;BME280;7392;52.078;11.650;2023-05-09T03:19:33;101405.81;;;6.85;89.05
14612;BME280;7392;52.078;11.650;2023-05-09T03:22:01;101396.13;;;6.84;89.12
14612;BME280;7392;52.078;11.650;2023-05-09T03:24:33;101397.84;;;6.82;89.54
14612;BME280;7392;52.078;11.650;2023-05-09T03:27:01;101396.91;;;6.81;89.80
14612;BME280;7392;52.078;11.650;2023-05-09T03:29:30;101397.84;;;6.82;90.19
14612;BME280;7392;52.078;11.650;2023-05-09T03:31:59;101403.97;;;6.81;89.99
14612;BME280;7392;52.078;11.650;2023-05-09T03:34:27;101399.56;;;6.81;90.04
14612;BME280;7392;52.078;11.650;2023-05-09T03:36:56;101397.75;;;6.79;90.14
14612;BME280;7392;52.078;11.650;2023-05-09T03:39:24;101393.31;;;6.78;90.36
14612;BME280;7392;52.078;11.650;2023-05-09T03:41:55;101393.28;;;6.76;90.54
14612;BME280;7392;52.078;11.650;2023-05-09T03:44:23;101389.72;;;6.74;90.96
14612;BME280;7392;52.078;11.650;2023-05-09T03:46:53;101392.34;;;6.74;91.05
14612;BME280;7392;52.078;11.650;2023-05-09T03:49:21;101392.31;;;6.72;91.31
14612;BME280;7392;52.078;11.650;2023-05-09T03:51:51;101392.28;;;6.71;91.49
14612;BME280;7392;52.078;11.650;2023-05-09T03:54:19;101387.00;;;6.71;91.66
14612;BME280;7392;52.078;11.650;2023-05-09T03:56:47;101391.34;;;6.69;91.46
14612;BME280;7392;52.078;11.650;2023-05-09T03:59:16;101386.94;;;6.68;91.56
14612;BME280;7392;52.078;11.650;2023-05-09T04:01:43;101384.28;;;6.66;91.42
14612;BME280;7392;52.078;11.650;2023-05-09T04:04:13;101383.31;;;6.64;91.23
14612;BME280;7392;52.078;11.650;2023-05-09T04:06:42;101385.03;;;6.62;91.29
14612;BME280;7392;52.078;11.650;2023-05-09T04:09:10;101391.19;;;6.61;91.56
14612;BME280;7392;52.078;11.650;2023-05-09T04:11:40;101385.00;;;6.61;91.68
14612;BME280;7392;52.078;11.650;2023-05-09T04:14:10;101384.13;;;6.60;91.80
14612;BME280;7392;52.078;11.650;2023-05-09T04:16:38;101376.22;;;6.62;91.67
14612;BME280;7392;52.078;11.650;2023-05-09T04:19:06;101374.44;;;6.61;91.77
14612;BME280;7392;52.078;11.650;2023-05-09T04:21:35;101372.72;;;6.61;91.57
14612;BME280;7392;52.078;11.650;2023-05-09T04:24:04;101371.88;;;6.64;92.16
14612;BME280;7392;52.078;11.650;2023-05-09T04:26:40;101367.53;;;6.66;91.67
14612;BME280;7392;52.078;11.650;2023-05-09T04:29:11;101371.97;;;6.67;91.89
14612;BME280;7392;52.078;11.650;2023-05-09T04:31:40;101369.31;;;6.67;91.79
14612;BME280;7392;52.078;11.650;2023-05-09T04:34:11;101371.13;;;6.69;91.63
14612;BME280;7392;52.078;11.650;2023-05-09T04:36:40;101374.63;;;6.68;91.87
14612;BME280;7392;52.078;11.650;2023-05-09T04:39:07;101363.25;;;6.71;91.81
14612;BME280;7392;52.078;11.650;2023-05-09T04:41:41;101363.28;;;6.72;92.01
14612;BME280;7392;52.078;11.650;2023-05-09T04:44:16;101368.63;;;6.76;91.86
14612;BME280;7392;52.078;11.650;2023-05-09T04:46:54;101371.31;;;6.77;91.43
14612;BME280;7392;52.078;11.650;2023-05-09T04:49:34;101374.03;;;6.80;91.65
14612;BME280;7392;52.078;11.650;2023-05-09T04:52:12;101369.75;;;6.85;91.46
14612;BME280;7392;52.078;11.650;2023-05-09T04:54:47;101368.94;;;6.89;91.03
14612;BME280;7392;52.078;11.650;2023-05-09T04:57:32;101366.38;;;6.92;91.17
14612;BME280;7392;52.078;11.650;2023-05-09T05:00:07;101369.97;;;6.96;91.10
14612;BME280;7392;52.078;11.650;2023-05-09T05:02:43;101368.34;;;7.01;90.81
14612;BME280;7392;52.078;11.650;2023-05-09T05:05:14;101359.59;;;7.05;90.39
14612;BME280;7392;52.078;11.650;2023-05-09T05:07:44;101352.66;;;7.09;90.34
14612;BME280;7392;52.078;11.650;2023-05-09T05:10:19;101351.03;;;7.16;90.35
14612;BME280;7392;52.078;11.650;2023-05-09T05:12:52;101350.28;;;7.21;90.24
14612;BME280;7392;52.078;11.650;2023-05-09T05:15:21;101349.50;;;7.27;90.10
14612;BME280;7392;52.078;11.650;2023-05-09T05:17:49;101352.28;;;7.33;89.69
14612;BME280;7392;52.078;11.650;2023-05-09T05:20:20;101349.78;;;7.41;89.10
14612;BME280;7392;52.078;11.650;2023-05-09T05:22:51;101344.69;;;7.48;88.99
14612;BME280;7392;52.078;11.650;2023-05-09T05:25:21;101336.00;;;7.56;87.98
14612;BME280;7392;52.078;11.650;2023-05-09T05:27:51;101339.69;;;7.64;87.87
14612;BME280;7392;52.078;11.650;2023-05-09T05:30:19;101340.72;;;7.72;87.77
14612;BME280;7392;52.078;11.650;2023-05-09T05:32:48;101344.34;;;7.79;87.46
14612;BME280;7392;52.078;11.650;2023-05-09T05:35:18;101337.44;;;7.85;87.42
14612;BME280;7392;52.078;11.650;2023-05-09T05:37:50;101348.13;;;7.92;86.35
14612;BME280;7392;52.078;11.650;2023-05-09T05:40:19;101346.50;;;7.98;85.33
14612;BME280;7392;52.078;11.650;2023-05-09T05:42:49;101333.38;;;8.04;84.84
14612;BME280;7392;52.078;11.650;2023-05-09T05:45:17;101342.28;;;8.11;84.43
14612;BME280;7392;52.078;11.650;2023-05-09T05:47:48;101339.75;;;8.17;84.43
14612;BME280;7392;52.078;11.650;2023-05-09T05:50:17;101333.69;;;8.23;84.58
14612;BME280;7392;52.078;11.650;2023-05-09T05:52:45;101330.28;;;8.30;84.49
14612;BME280;7392;52.078;11.650;2023-05-09T05:55:16;101325.09;;;8.38;84.57
14612;BME280;7392;52.078;11.650;2023-05-09T05:57:44;101319.06;;;8.45;84.22
14612;BME280;7392;52.078;11.650;2023-05-09T06:00:14;101312.09;;;8.52;84.31
14612;BME280;7392;52.078;11.650;2023-05-09T06:02:46;101314.88;;;8.59;84.13
14612;BME280;7392;52.078;11.650;2023-05-09T06:05:21;101308.81;;;8.67;83.81
14612;BME280;7392;52.078;11.650;2023-05-09T06:07:50;101312.44;;;8.73;83.29
14612;BME280;7392;52.078;11.650;2023-05-09T06:10:19;101309.88;;;8.81;82.24
14612;BME280;7392;52.078;11.650;2023-05-09T06:12:47;101314.41;;;8.87;82.27
14612;BME280;7392;52.078;11.650;2023-05-09T06:15:16;101313.59;;;8.94;81.35
14612;BME280;7392;52.078;11.650;2023-05-09T06:17:47;101303.06;;;9.00;80.79
14612;BME280;7392;52.078;11.650;2023-05-09T06:20:15;101317.31;;;9.08;80.53
14612;BME280;7392;52.078;11.650;2023-05-09T06:22:43;101310.34;;;9.15;80.71
14612;BME280;7392;52.078;11.650;2023-05-09T06:25:11;101314.81;;;9.19;79.60
14612;BME280;7392;52.078;11.650;2023-05-09T06:27:41;101305.19;;;9.27;80.61
14612;BME280;7392;52.078;11.650;2023-05-09T06:30:09;101301.75;;;9.34;80.35
14612;BME280;7392;52.078;11.650;2023-05-09T06:32:51;101300.94;;;9.42;79.51
14612;BME280;7392;52.078;11.650;2023-05-09T06:35:19;101296.63;;;9.50;79.35
14612;BME280;7392;52.078;11.650;2023-05-09T06:37:47;101293.16;;;9.57;78.10
14612;BME280;7392;52.078;11.650;2023-05-09T06:40:15;101291.44;;;9.62;78.00
14612;BME280;7392;52.078;11.650;2023-05-09T06:42:44;101295.94;;;9.69;78.10
14612;BME280;7392;52.078;11.650;2023-05-09T06:45:13;101288.91;;;9.74;78.37
14612;BME280;7392;52.078;11.650;2023-05-09T06:47:41;101288.13;;;9.85;78.82
14612;BME280;7392;52.078;11.650;2023-05-09T06:50:09;101289.97;;;9.93;78.87
14612;BME280;7392;52.078;11.650;2023-05-09T06:52:37;101285.63;;;10.03;78.41
14612;BME280;7392;52.078;11.650;2023-05-09T06:55:06;101278.63;;;10.10;77.34
14612;BME280;7392;52.078;11.650;2023-05-09T06:57:34;101276.94;;;10.20;77.04
14612;BME280;7392;52.078;11.650;2023-05-09T07:00:05;101274.34;;;10.29;77.15
14612;BME280;7392;52.078;11.650;2023-05-09T07:02:33;101271.78;;;10.40;77.14
14612;BME280;7392;52.078;11.650;2023-05-09T07:05:01;101272.75;;;10.50;76.40
14612;BME280;7392;52.078;11.650;2023-05-09T07:07:31;101270.16;;;10.62;76.50
14612;BME280;7392;52.078;11.650;2023-05-09T07:09:58;101267.56;;;10.70;75.77
14612;BME280;7392;52.078;11.650;2023-05-09T07:12:37;101270.28;;;10.82;75.00
14612;BME280;7392;52.078;11.650;2023-05-09T07:15:08;101280.06;;;10.91;74.01
14612;BME280;7392;52.078;11.650;2023-05-09T07:17:36;101269.47;;;10.98;72.97
14612;BME280;7392;52.078;11.650;2023-05-09T07:20:05;101275.69;;;11.08;72.75
14612;BME280;7392;52.078;11.650;2023-05-09T07:22:33;101272.19;;;11.17;72.15
14612;BME280;7392;52.078;11.650;2023-05-09T07:25:05;101263.34;;;11.27;71.75
14612;BME280;7392;52.078;11.650;2023-05-09T07:27:33;101266.94;;;11.37;71.69
14612;BME280;7392;52.078;11.650;2023-05-09T07:30:01;101254.56;;;11.48;71.67
14612;BME280;7392;52.078;11.650;2023-05-09T07:32:31;101249.28;;;11.60;71.89
14612;BME280;7392;52.078;11.650;2023-05-09T07:34:59;101239.50;;;11.73;71.73
14612;BME280;7392;52.078;11.650;2023-05-09T07:37:26;101242.19;;;11.90;72.69
14612;BME280;7392;52.078;11.650;2023-05-09T07:39:54;101233.34;;;12.02;72.58
14612;BME280;7392;52.078;11.650;2023-05-09T07:42:22;101236.00;;;12.19;72.64
14612;BME280;7392;52.078;11.650;2023-05-09T07:44:50;101230.66;;;12.33;72.29
14612;BME280;7392;52.078;11.650;2023-05-09T07:47:17;101228.88;;;12.47;71.44
14612;BME280;7392;52.078;11.650;2023-05-09T07:49:46;101223.50;;;12.60;70.49
14612;BME280;7392;52.078;11.650;2023-05-09T07:52:14;101230.56;;;12.71;69.82
14612;BME280;7392;52.078;11.650;2023-05-09T07:54:43;101217.19;;;12.82;68.81
14612;BME280;7392;52.078;11.650;2023-05-09T07:57:11;101212.72;;;12.92;68.16
14612;BME280;7392;52.078;11.650;2023-05-09T07:59:38;101219.78;;;13.04;67.31
14612;BME280;7392;52.078;11.650;2023-05-09T08:02:12;101199.28;;;13.15;66.27
14612;BME280;7392;52.078;11.650;2023-05-09T08:04:40;101197.44;;;13.23;65.75
14612;BME280;7392;52.078;11.650;2023-05-09T08:07:09;101202.75;;;13.34;66.22
14612;BME280;7392;52.078;11.650;2023-05-09T08:09:37;101209.78;;;13.46;65.52
14612;BME280;7392;52.078;11.650;2023-05-09T08:12:05;101199.03;;;13.55;64.33
14612;BME280;7392;52.078;11.650;2023-05-09T08:14:33;101197.19;;;13.65;64.36
14612;BME280;7392;52.078;11.650;2023-05-09T08:17:01;101191.75;;;13.79;64.63
14612;BME280;7392;52.078;11.650;2023-05-09T08:19:29;101191.63;;;13.93;64.33
14612;BME280;7392;52.078;11.650;2023-05-09T08:21:59;101182.59;;;14.06;64.67
14612;BME280;7392;52.078;11.650;2023-05-09T08:24:28;101187.81;;;14.20;64.42
14612;BME280;7392;52.078;11.650;2023-05-09T08:26:57;101175.16;;;14.34;64.14
14612;BME280;7392;52.078;11.650;2023-05-09T08:29:25;101191.94;;;14.50;63.83
14612;BME280;7392;52.078;11.650;2023-05-09T08:31:54;101182.00;;;14.63;63.52
14612;BME280;7392;52.078;11.650;2023-05-09T08:34:22;101179.16;;;14.75;63.62
14612;BME280;7392;52.078;11.650;2023-05-09T08:36:49;101185.28;;;14.87;62.67
14612;BME280;7392;52.078;11.650;2023-05-09T08:39:21;101169.94;;;15.00;62.52
14612;BME280;7392;52.078;11.650;2023-05-09T08:41:50;101170.69;;;15.11;62.55
14612;BME280;7392;52.078;11.650;2023-05-09T08:44:19;101164.22;;;15.27;63.06
14612;BME280;7392;52.078;11.650;2023-05-09T08:46:50;101170.25;;;15.40;61.99
14612;BME280;7392;52.078;11.650;2023-05-09T08:49:19;101163.84;;;15.50;61.45
14612;BME280;7392;52.078;11.650;2023-05-09T08:51:47;101153.81;;;15.63;60.40
14612;BME280;7392;52.078;11.650;2023-05-09T08:54:16;101152.81;;;15.70;59.50
14612;BME280;7392;52.078;11.650;2023-05-09T08:56:46;101149.97;;;15.81;59.12
14612;BME280;7392;52.078;11.650;2023-05-09T08:59:16;101148.00;;;15.93;58.68
14612;BME280;7392;52.078;11.650;2023-05-09T09:01:44;101140.59;;;16.05;58.31
14612;BME280;7392;52.078;11.650;2023-05-09T09:04:12;101142.09;;;16.22;58.15
14612;BME280;7392;52.078;11.650;2023-05-09T09:06:40;101128.34;;;16.39;57.17
14612;BME280;7392;52.078;11.650;2023-05-09T09:09:10;101127.13;;;16.57;56.46
14612;BME280;7392;52.078;11.650;2023-05-09T09:11:39;101124.03;;;16.74;55.83
14612;BME280;7392;52.078;11.650;2023-05-09T09:14:11;101125.53;;;16.89;52.49
14612;BME280;7392;52.078;11.650;2023-05-09T09:16:43;101122.56;;;17.01;53.30
14612;BME280;7392;52.078;11.650;2023-05-09T09:19:12;101112.34;;;17.18;51.77
14612;BME280;7392;52.078;11.650;2023-05-09T09:21:44;101106.47;;;17.38;51.20
14612;BME280;7392;52.078;11.650;2023-05-09T09:24:12;101097.09;;;17.56;50.73
14612;BME280;7392;52.078;11.650;2023-05-09T09:26:45;101101.19;;;17.71;49.02
14612;BME280;7392;52.078;11.650;2023-05-09T09:29:13;101095.34;;;17.90;50.29
14612;BME280;7392;52.078;11.650;2023-05-09T09:31:44;101096.53;;;18.12;49.79
14612;BME280;7392;52.078;11.650;2023-05-09T09:34:20;101093.41;;;18.28;47.76
14612;BME280;7392;52.078;11.650;2023-05-09T09:36:48;101099.09;;;18.48;48.29
14612;BME280;7392;52.078;11.650;2023-05-09T09:39:16;101097.47;;;18.73;48.01
14612;BME280;7392;52.078;11.650;2023-05-09T09:41:44;101096.97;;;18.90;47.25
14612;BME280;7392;52.078;11.650;2023-05-09T09:44:13;101088.09;;;19.14;47.85
14612;BME280;7392;52.078;11.650;2023-05-09T09:46:44;101070.38;;;19.35;46.92
14612;BME280;7392;52.078;11.650;2023-05-09T09:49:13;101078.91;;;19.48;44.08
14612;BME280;7392;52.078;11.650;2023-05-09T09:51:42;101076.69;;;19.61;44.47
14612;BME280;7392;52.078;11.650;2023-05-09T09:54:11;101081.63;;;19.75;44.02
14612;BME280;7392;52.078;11.650;2023-05-09T09:56:40;101080.31;;;19.87;43.29
14612;BME280;7392;52.078;11.650;2023-05-09T09:59:11;101068.22;;;19.98;43.41
14612;BME280;7392;52.078;11.650;2023-05-09T10:01:57;101075.31;;;20.01;41.78
14612;BME280;7392;52.078;11.650;2023-05-09T10:04:28;101069.75;;;20.06;42.43
14612;BME280;7392;52.078;11.650;2023-05-09T10:06:57;101060.75;;;20.05;41.54
14612;BME280;7392;52.078;11.650;2023-05-09T10:09:26;101067.66;;;20.14;42.25
14612;BME280;7392;52.078;11.650;2023-05-09T10:11:55;101055.75;;;20.20;40.78
14612;BME280;7392;52.078;11.650;2023-05-09T10:14:25;101049.84;;;20.33;41.80
14612;BME280;7392;52.078;11.650;2023-05-09T10:16:54;101051.88;;;20.50;41.74
14612;BME280;7392;52.078;11.650;2023-05-09T10:19:25;101055.84;;;20.65;40.29
14612;BME280;7392;52.078;11.650;2023-05-09T10:21:55;101056.09;;;20.81;40.39
14612;BME280;7392;52.078;11.650;2023-05-09T10:24:27;101044.22;;;20.85;39.62
14612;BME280;7392;52.078;11.650;2023-05-09T10:27:01;101031.00;;;21.01;40.28
14612;BME280;7392;52.078;11.650;2023-05-09T10:29:34;101033.75;;;21.22;40.40
14612;BME280;7392;52.078;11.650;2023-05-09T10:32:10;101041.91;;;21.42;40.61
14612;BME280;7392;52.078;11.650;2023-05-09T10:34:44;101025.91;;;21.58;39.43
14612;BME280;7392;52.078;11.650;2023-05-09T10:37:17;101026.06;;;21.76;39.78
14612;BME280;7392;52.078;11.650;2023-05-09T10:39:51;101031.19;;;21.82;38.11
14612;BME280;7392;52.078;11.650;2023-05-09T10:42:25;101007.34;;;21.92;38.45
14612;BME280;7392;52.078;11.650;2023-05-09T10:45:00;101006.78;;;22.04;37.92
14612;BME280;7392;52.078;11.650;2023-05-09T10:47:30;101009.75;;;22.17;38.82
14612;BME280;7392;52.078;11.650;2023-05-09T10:50:09;101011.50;;;22.38;39.11
14612;BME280;7392;52.078;11.650;2023-05-09T10:53:05;101010.06;;;22.50;37.68
14612;BME280;7392;52.078;11.650;2023-05-09T10:55:54;101001.47;;;22.59;37.22
14612;BME280;7392;52.078;11.650;2023-05-09T10:58:26;100996.28;;;22.74;37.21
14612;BME280;7392;52.078;11.650;2023-05-09T11:01:03;100979.72;;;22.80;36.15
14612;BME280;7392;52.078;11.650;2023-05-09T11:03:52;100990.31;;;22.85;36.74
14612;BME280;7392;52.078;11.650;2023-05-09T11:06:41;100992.56;;;22.94;36.87
14612;BME280;7392;52.078;11.650;2023-05-09T11:09:25;100990.16;;;23.07;37.55
14612;BME280;7392;52.078;11.650;2023-05-09T11:11:55;100994.38;;;23.12;36.59
14612;BME280;7392;52.078;11.650;2023-05-09T11:14:37;100981.81;;;23.11;36.15
14612;BME280;7392;52.078;11.650;2023-05-09T11:17:05;100969.94;;;23.14;35.82
14612;BME280;7392;52.078;11.650;2023-05-09T11:22:25;100951.78;;;23.33;35.22
14612;BME280;7392;52.078;11.650;2023-05-09T11:25:01;100945.00;;;23.42;35.37
14612;BME280;7392;52.078;11.650;2023-05-09T11:27:37;100948.97;;;23.52;36.07
14612;BME280;7392;52.078;11.650;2023-05-09T11:30:07;100936.84;;;23.60;35.30
14612;BME280;7392;52.078;11.650;2023-05-09T11:32:46;100935.78;;;23.62;35.36
14612;BME280;7392;52.078;11.650;2023-05-09T11:35:18;100930.44;;;23.78;36.53
14612;BME280;7392;52.078;11.650;2023-05-09T11:37:49;100923.66;;;23.87;34.97
14612;BME280;7392;52.078;11.650;2023-05-09T11:40:19;100920.50;;;23.95;35.22
14612;BME280;7392;52.078;11.650;2023-05-09T11:42:48;100912.28;;;23.96;34.13
14612;BME280;7392;52.078;11.650;2023-05-09T11:45:24;100904.97;;;23.98;33.89
14612;BME280;7392;52.078;11.650;2023-05-09T11:47:53;100906.97;;;24.11;35.17
14612;BME280;7392;52.078;11.650;2023-05-09T11:50:22;100900.00;;;24.22;34.58
14612;BME280;7392;52.078;11.650;2023-05-09T11:52:52;100912.41;;;24.26;33.35
14612;BME280;7392;52.078;11.650;2023-05-09T11:55:21;100911.72;;;24.23;33.52
14612;BME280;7392;52.078;11.650;2023-05-09T11:57:52;100902.09;;;24.17;33.70
14612;BME280;7392;52.078;11.650;2023-05-09T12:00:21;100890.34;;;24.17;33.81
14612;BME280;7392;52.078;11.650;2023-05-09T12:02:50;100880.63;;;24.28;34.11
14612;BME280;7392;52.078;11.650;2023-05-09T12:05:20;100895.25;;;24.42;34.66
14612;BME280;7392;52.078;11.650;2023-05-09T12:07:49;100884.03;;;24.48;33.55
14612;BME280;7392;52.078;11.650;2023-05-09T12:10:21;100876.59;;;24.52;33.06
14612;BME280;7392;52.078;11.650;2023-05-09T12:12:50;100870.56;;;24.62;33.15
14612;BME280;7392;52.078;11.650;2023-05-09T12:15:18;100859.59;;;24.64;32.59
14612;BME280;7392;52.078;11.650;2023-05-09T12:17:59;100856.19;;;24.60;32.20
14612;BME280;7392;52.078;11.650;2023-05-09T12:20:38;100857.16;;;24.59;32.62
14612;BME280;7392;52.078;11.650;2023-05-09T12:23:08;100842.97;;;24.54;32.74
14612;BME280;7392;52.078;11.650;2023-05-09T12:25:37;100837.97;;;24.62;33.18
14612;BME280;7392;52.078;11.650;2023-05-09T12:28:05;100843.66;;;24.74;33.69
14612;BME280;7392;52.078;11.650;2023-05-09T12:30:33;100833.28;;;24.80;32.04
14612;BME280;7392;52.078;11.650;2023-05-09T12:33:01;100838.03;;;24.77;31.98
14612;BME280;7392;52.078;11.650;2023-05-09T12:35:29;100830.06;;;24.74;32.15
14612;BME280;7392;52.078;11.650;2023-05-09T12:37:57;100824.81;;;24.71;31.41
14612;BME280;7392;52.078;11.650;2023-05-09T12:40:25;100826.69;;;24.70;31.84
14612;BME280;7392;52.078;11.650;2023-05-09T12:42:56;100823.28;;;24.67;31.44
14612;BME280;7392;52.078;11.650;2023-05-09T12:45:26;100807.84;;;24.67;31.46
14612;BME280;7392;52.078;11.650;2023-05-09T12:47:55;100800.56;;;24.68;31.42
14612;BME280;7392;52.078;11.650;2023-05-09T12:50:30;100805.47;;;24.77;32.46
14612;BME280;7392;52.078;11.650;2023-05-09T12:53:01;100808.56;;;24.85;32.43
14612;BME280;7392;52.078;11.650;2023-05-09T12:55:30;100809.06;;;24.92;31.31
14612;BME280;7392;52.078;11.650;2023-05-09T12:58:01;100798.78;;;24.82;30.78
14612;BME280;7392;52.078;11.650;2023-05-09T13:00:41;100795.78;;;24.87;31.81
14612;BME280;7392;52.078;11.650;2023-05-09T13:03:19;100789.00;;;24.94;31.04
14612;BME280;7392;52.078;11.650;2023-05-09T13:05:55;100780.56;;;24.99;30.73
14612;BME280;7392;52.078;11.650;2023-05-09T13:08:23;100786.19;;;24.96;30.58
14612;BME280;7392;52.078;11.650;2023-05-09T13:10:51;100778.91;;;24.96;30.45
14612;BME280;7392;52.078;11.650;2023-05-09T13:13:35;100781.03;;;24.91;30.27
14612;BME280;7392;52.078;11.650;2023-05-09T13:16:03;100774.34;;;24.97;31.26
14612;BME280;7392;52.078;11.650;2023-05-09T13:18:33;100771.06;;;25.06;30.60
14612;BME280;7392;52.078;11.650;2023-05-09T13:21:01;100766.41;;;25.08;30.53
14612;BME280;7392;52.078;11.650;2023-05-09T13:23:29;100762.13;;;25.18;30.55
14612;BME280;7392;52.078;11.650;2023-05-09T13:25:56;100772.31;;;25.15;29.39
14612;BME280;7392;52.078;11.650;2023-05-09T13:28:24;100767.28;;;25.09;29.92
14612;BME280;7392;52.078;11.650;2023-05-09T13:30:53;100750.19;;;25.21;30.74
14612;BME280;7392;52.078;11.650;2023-05-09T13:33:21;100752.28;;;25.32;29.68
14612;BME280;7392;52.078;11.650;2023-05-09T13:35:52;100752.66;;;25.40;29.64
14612;BME280;7392;52.078;11.650;2023-05-09T13:38:20;100743.81;;;25.36;28.67
14612;BME280;7392;52.078;11.650;2023-05-09T13:40:47;100744.22;;;25.30;29.04
14612;BME280;7392;52.078;11.650;2023-05-09T13:43:15;100740.88;;;25.25;28.51
14612;BME280;7392;52.078;11.650;2023-05-09T13:45:43;100733.03;;;25.20;28.13